sensor_id;sensor_type;location;lat;lon;timestamp;temperature;humidity
67722;SHT31;58309;45.292;11.820;2023-06-14T00:00:58;17.08;89.34
67722;SHT31;58309;45.292;11.820;2023-06-14T00:03:23;17.06;89.32
67722;SHT31;58309;45.292;11.820;2023-06-14T00:05:50;17.03;89.55
67722;SHT31;58309;45.292;11.820;2023-06-14T00:08:15;17.03;89.66
67722;SHT31;58309;45.292;11.820;2023-06-14T00:10:42;17.02;89.69
67722;SHT31;58309;45.292;11.820;2023-06-14T00:13:09;16.98;89.73
67722;SHT31;58309;45.292;11.820;2023-06-14T00:15:34;16.98;89.86
67722;SHT31;58309;45.292;11.820;2023-06-14T00:18:00;16.92;90.09
67722;SHT31;58309;45.292;11.820;2023-06-14T00:20:27;16.91;90.40
67722;SHT31;58309;45.292;11.820;2023-06-14T00:22:53;16.93;90.52
67722;SHT31;58309;45.292;11.820;2023-06-14T00:25:20;16.91;90.49
67722;SHT31;58309;45.292;11.820;2023-06-14T00:27:46;16.95;90.58
67722;SHT31;58309;45.292;11.820;2023-06-14T00:30:11;16.98;90.35
67722;SHT31;58309;45.292;11.820;2023-06-14T00:32:37;17.03;90.58
67722;SHT31;58309;45.292;11.820;2023-06-14T00:35:03;17.05;90.50
67722;SHT31;58309;45.292;11.820;2023-06-14T00:37:28;17.05;90.39
67722;SHT31;58309;45.292;11.820;2023-06-14T00:39:54;17.03;90.33
67722;SHT31;58309;45.292;11.820;2023-06-14T00:42:27;17.02;90.33
67722;SHT31;58309;45.292;11.820;2023-06-14T00:44:53;17.02;90.44
67722;SHT31;58309;45.292;11.820;2023-06-14T00:47:19;16.96;90.49
67722;SHT31;58309;45.292;11.820;2023-06-14T00:49:48;16.98;90.59
67722;SHT31;58309;45.292;11.820;2023-06-14T00:52:15;16.98;90.65
67722;SHT31;58309;45.292;11.820;2023-06-14T00:54:42;16.98;90.71
67722;SHT31;58309;45.292;11.820;2023-06-14T00:57:09;16.99;90.89
67722;SHT31;58309;45.292;11.820;2023-06-14T00:59:40;16.99;90.90
67722;SHT31;58309;45.292;11.820;2023-06-14T01:02:07;17.01;91.36
67722;SHT31;58309;45.292;11.820;2023-06-14T01:04:32;17.06;91.31
67722;SHT31;58309;45.292;11.820;2023-06-14T01:07:42;17.08;91.47
67722;SHT31;58309;45.292;11.820;2023-06-14T01:15:22;17.11;91.50
67722;SHT31;58309;45.292;11.820;2023-06-14T01:17:51;17.12;91.63
67722;SHT31;58309;45.292;11.820;2023-06-14T01:20:21;17.15;91.47
67722;SHT31;58309;45.292;11.820;2023-06-14T01:22:53;17.16;91.74
67722;SHT31;58309;45.292;11.820;2023-06-14T01:25:20;17.23;91.59
67722;SHT31;58309;45.292;11.820;2023-06-14T01:27:51;17.26;91.93
67722;SHT31;58309;45.292;11.820;2023-06-14T01:30:18;17.29;91.85
67722;SHT31;58309;45.292;11.820;2023-06-14T01:32:46;17.30;91.77
67722;SHT31;58309;45.292;11.820;2023-06-14T01:35:12;17.29;91.87
67722;SHT31;58309;45.292;11.820;2023-06-14T01:37:37;17.33;92.03
67722;SHT31;58309;45.292;11.820;2023-06-14T01:40:05;17.37;92.05
67722;SHT31;58309;45.292;11.820;2023-06-14T01:42:34;17.37;91.95
67722;SHT31;58309;45.292;11.820;2023-06-14T01:45:02;17.44;91.80
67722;SHT31;58309;45.292;11.820;2023-06-14T01:47:27;17.49;92.05
67722;SHT31;58309;45.292;11.820;2023-06-14T01:49:53;17.54;91.78
67722;SHT31;58309;45.292;11.820;2023-06-14T01:52:19;17.56;91.56
67722;SHT31;58309;45.292;11.820;2023-06-14T01:54:44;17.56;91.84
67722;SHT31;58309;45.292;11.820;2023-06-14T01:57:11;17.59;91.67
67722;SHT31;58309;45.292;11.820;2023-06-14T01:59:37;17.62;91.85
67722;SHT31;58309;45.292;11.820;2023-06-14T02:02:03;17.60;91.91
67722;SHT31;58309;45.292;11.820;2023-06-14T02:04:29;17.63;91.77
67722;SHT31;58309;45.292;11.820;2023-06-14T02:06:54;17.62;92.00
67722;SHT31;58309;45.292;11.820;2023-06-14T02:09:20;17.62;92.02
67722;SHT31;58309;45.292;11.820;2023-06-14T02:11:45;17.63;92.30
67722;SHT31;58309;45.292;11.820;2023-06-14T02:14:11;17.60;92.32
67722;SHT31;58309;45.292;11.820;2023-06-14T02:16:37;17.57;92.28
67722;SHT31;58309;45.292;11.820;2023-06-14T02:19:04;17.56;92.18
67722;SHT31;58309;45.292;11.820;2023-06-14T02:21:30;17.56;92.26
67722;SHT31;58309;45.292;11.820;2023-06-14T02:23:56;17.54;92.39
67722;SHT31;58309;45.292;11.820;2023-06-14T02:26:21;17.53;92.65
67722;SHT31;58309;45.292;11.820;2023-06-14T02:28:48;17.47;92.93
67722;SHT31;58309;45.292;11.820;2023-06-14T02:31:14;17.43;92.79
67722;SHT31;58309;45.292;11.820;2023-06-14T02:33:39;17.36;92.86
67722;SHT31;58309;45.292;11.820;2023-06-14T02:36:06;17.34;92.99
67722;SHT31;58309;45.292;11.820;2023-06-14T02:38:31;17.30;93.20
67722;SHT31;58309;45.292;11.820;2023-06-14T02:40:57;17.27;93.13
67722;SHT31;58309;45.292;11.820;2023-06-14T02:43:24;17.22;93.42
67722;SHT31;58309;45.292;11.820;2023-06-14T02:45:50;17.18;93.48
67722;SHT31;58309;45.292;11.820;2023-06-14T02:48:15;17.12;93.68
67722;SHT31;58309;45.292;11.820;2023-06-14T02:50:41;17.05;93.67
67722;SHT31;58309;45.292;11.820;2023-06-14T02:53:07;17.02;93.96
67722;SHT31;58309;45.292;11.820;2023-06-14T02:55:33;16.93;94.10
67722;SHT31;58309;45.292;11.820;2023-06-14T02:57:58;16.93;94.46
67722;SHT31;58309;45.292;11.820;2023-06-14T03:00:24;16.89;94.58
67722;SHT31;58309;45.292;11.820;2023-06-14T03:02:49;16.86;94.54
67722;SHT31;58309;45.292;11.820;2023-06-14T03:05:16;16.82;94.43
67722;SHT31;58309;45.292;11.820;2023-06-14T03:07:46;16.79;94.67
67722;SHT31;58309;45.292;11.820;2023-06-14T03:10:12;16.75;94.86
67722;SHT31;58309;45.292;11.820;2023-06-14T03:12:38;16.69;94.98
67722;SHT31;58309;45.292;11.820;2023-06-14T03:15:04;16.69;95.10
67722;SHT31;58309;45.292;11.820;2023-06-14T03:17:30;16.64;95.18
67722;SHT31;58309;45.292;11.820;2023-06-14T03:19:59;16.62;95.51
67722;SHT31;58309;45.292;11.820;2023-06-14T03:22:25;16.60;95.35
67722;SHT31;58309;45.292;11.820;2023-06-14T03:24:54;16.58;95.38
67722;SHT31;58309;45.292;11.820;2023-06-14T03:27:20;16.62;95.36
67722;SHT31;58309;45.292;11.820;2023-06-14T03:29:46;16.62;95.35
67722;SHT31;58309;45.292;11.820;2023-06-14T03:32:11;16.62;95.42
67722;SHT31;58309;45.292;11.820;2023-06-14T03:34:37;16.61;95.33
67722;SHT31;58309;45.292;11.820;2023-06-14T03:37:04;16.61;95.58
67722;SHT31;58309;45.292;11.820;2023-06-14T03:39:30;16.64;95.51
67722;SHT31;58309;45.292;11.820;2023-06-14T03:41:55;16.67;95.36
67722;SHT31;58309;45.292;11.820;2023-06-14T03:44:21;16.67;95.30
67722;SHT31;58309;45.292;11.820;2023-06-14T03:46:47;16.68;95.37
67722;SHT31;58309;45.292;11.820;2023-06-14T03:49:13;16.72;95.42
67722;SHT31;58309;45.292;11.820;2023-06-14T03:51:39;16.69;95.32
67722;SHT31;58309;45.292;11.820;2023-06-14T03:54:05;16.76;95.27
67722;SHT31;58309;45.292;11.820;2023-06-14T03:56:31;16.81;95.10
67722;SHT31;58309;45.292;11.820;2023-06-14T03:58:56;16.85;95.00
67722;SHT31;58309;45.292;11.820;2023-06-14T04:01:22;16.89;94.97
67722;SHT31;58309;45.292;11.820;2023-06-14T04:03:52;16.93;94.97
67722;SHT31;58309;45.292;11.820;2023-06-14T04:06:18;16.96;94.60
67722;SHT31;58309;45.292;11.820;2023-06-14T04:08:44;17.01;94.48
67722;SHT31;58309;45.292;11.820;2023-06-14T04:11:11;17.02;94.39
67722;SHT31;58309;45.292;11.820;2023-06-14T04:13:37;17.02;94.33
67722;SHT31;58309;45.292;11.820;2023-06-14T04:16:04;17.05;94.28
67722;SHT31;58309;45.292;11.820;2023-06-14T04:18:30;17.11;94.37
67722;SHT31;58309;45.292;11.820;2023-06-14T04:20:55;17.15;94.16
67722;SHT31;58309;45.292;11.820;2023-06-14T04:23:21;17.23;94.10
67722;SHT31;58309;45.292;11.820;2023-06-14T04:25:47;17.25;93.90
67722;SHT31;58309;45.292;11.820;2023-06-14T04:28:14;17.25;93.74
67722;SHT31;58309;45.292;11.820;2023-06-14T04:30:44;17.32;93.64
67722;SHT31;58309;45.292;11.820;2023-06-14T04:33:10;17.34;93.69
67722;SHT31;58309;45.292;11.820;2023-06-14T04:35:36;17.46;93.70
67722;SHT31;58309;45.292;11.820;2023-06-14T04:38:03;17.62;92.98
67722;SHT31;58309;45.292;11.820;2023-06-14T04:40:35;17.78;92.10
67722;SHT31;58309;45.292;11.820;2023-06-14T04:43:08;18.00;91.19
67722;SHT31;58309;45.292;11.820;2023-06-14T04:45:37;18.18;91.23
67722;SHT31;58309;45.292;11.820;2023-06-14T04:48:03;18.42;90.40
67722;SHT31;58309;45.292;11.820;2023-06-14T04:50:28;18.56;88.85
67722;SHT31;58309;45.292;11.820;2023-06-14T04:52:55;18.79;88.49
67722;SHT31;58309;45.292;11.820;2023-06-14T04:55:22;18.93;86.71
67722;SHT31;58309;45.292;11.820;2023-06-14T04:57:47;19.04;85.97
67722;SHT31;58309;45.292;11.820;2023-06-14T05:00:14;19.21;85.93
67722;SHT31;58309;45.292;11.820;2023-06-14T05:02:40;19.35;85.35
67722;SHT31;58309;45.292;11.820;2023-06-14T05:05:06;19.52;85.62
67722;SHT31;58309;45.292;11.820;2023-06-14T05:07:32;19.65;85.14
67722;SHT31;58309;45.292;11.820;2023-06-14T05:09:59;19.81;84.25
67722;SHT31;58309;45.292;11.820;2023-06-14T05:12:25;19.92;84.92
67722;SHT31;58309;45.292;11.820;2023-06-14T05:14:50;20.03;84.89
67722;SHT31;58309;45.292;11.820;2023-06-14T05:17:16;20.16;83.62
67722;SHT31;58309;45.292;11.820;2023-06-14T05:19:43;20.17;83.46
67722;SHT31;58309;45.292;11.820;2023-06-14T05:22:08;20.08;83.51
67722;SHT31;58309;45.292;11.820;2023-06-14T05:24:34;20.06;82.47
67722;SHT31;58309;45.292;11.820;2023-06-14T05:27:00;20.05;83.26
67722;SHT31;58309;45.292;11.820;2023-06-14T05:29:25;20.08;82.62
67722;SHT31;58309;45.292;11.820;2023-06-14T05:31:51;20.17;82.58
67722;SHT31;58309;45.292;11.820;2023-06-14T05:34:16;20.33;82.67
67722;SHT31;58309;45.292;11.820;2023-06-14T05:36:42;20.50;81.81
67722;SHT31;58309;45.292;11.820;2023-06-14T05:39:08;20.64;80.97
67722;SHT31;58309;45.292;11.820;2023-06-14T05:41:33;20.61;80.56
67722;SHT31;58309;45.292;11.820;2023-06-14T05:43:59;20.71;80.42
67722;SHT31;58309;45.292;11.820;2023-06-14T05:46:25;20.77;80.49
67722;SHT31;58309;45.292;11.820;2023-06-14T05:48:52;20.87;80.81
67722;SHT31;58309;45.292;11.820;2023-06-14T05:51:18;20.96;80.44
67722;SHT31;58309;45.292;11.820;2023-06-14T05:53:47;21.11;80.56
67722;SHT31;58309;45.292;11.820;2023-06-14T05:56:14;21.16;80.26
67722;SHT31;58309;45.292;11.820;2023-06-14T05:58:40;21.33;79.31
67722;SHT31;58309;45.292;11.820;2023-06-14T06:01:06;21.49;78.45
67722;SHT31;58309;45.292;11.820;2023-06-14T06:03:32;21.74;78.13
67722;SHT31;58309;45.292;11.820;2023-06-14T06:05:58;21.98;77.34
67722;SHT31;58309;45.292;11.820;2023-06-14T06:08:23;22.22;77.64
67722;SHT31;58309;45.292;11.820;2023-06-14T06:10:49;22.54;75.31
67722;SHT31;58309;45.292;11.820;2023-06-14T06:13:14;22.59;75.28
67722;SHT31;58309;45.292;11.820;2023-06-14T06:15:40;22.65;74.05
67722;SHT31;58309;45.292;11.820;2023-06-14T06:18:06;22.85;74.64
67722;SHT31;58309;45.292;11.820;2023-06-14T06:20:32;22.79;75.06
67722;SHT31;58309;45.292;11.820;2023-06-14T06:22:58;22.93;74.28
67722;SHT31;58309;45.292;11.820;2023-06-14T06:25:25;23.10;74.21
67722;SHT31;58309;45.292;11.820;2023-06-14T06:27:51;23.16;74.01
67722;SHT31;58309;45.292;11.820;2023-06-14T06:30:19;23.34;73.47
67722;SHT31;58309;45.292;11.820;2023-06-14T06:32:45;23.44;72.69
67722;SHT31;58309;45.292;11.820;2023-06-14T06:35:11;23.54;72.79
67722;SHT31;58309;45.292;11.820;2023-06-14T06:37:39;23.46;71.92
67722;SHT31;58309;45.292;11.820;2023-06-14T06:40:05;23.53;74.04
67722;SHT31;58309;45.292;11.820;2023-06-14T06:42:34;23.71;72.71
67722;SHT31;58309;45.292;11.820;2023-06-14T06:45:00;23.73;72.52
67722;SHT31;58309;45.292;11.820;2023-06-14T06:47:25;23.75;74.28
67722;SHT31;58309;45.292;11.820;2023-06-14T06:49:51;23.67;72.66
67722;SHT31;58309;45.292;11.820;2023-06-14T06:52:17;23.67;72.59
67722;SHT31;58309;45.292;11.820;2023-06-14T06:54:42;23.70;73.39
67722;SHT31;58309;45.292;11.820;2023-06-14T06:57:08;23.65;71.78
67722;SHT31;58309;45.292;11.820;2023-06-14T06:59:34;23.68;72.30
67722;SHT31;58309;45.292;11.820;2023-06-14T07:02:00;23.60;73.17
67722;SHT31;58309;45.292;11.820;2023-06-14T07:04:25;23.68;70.23
67722;SHT31;58309;45.292;11.820;2023-06-14T07:06:51;23.82;68.22
67722;SHT31;58309;45.292;11.820;2023-06-14T07:09:16;23.81;67.62
67722;SHT31;58309;45.292;11.820;2023-06-14T07:11:46;23.95;67.06
67722;SHT31;58309;45.292;11.820;2023-06-14T07:14:12;24.16;65.81
67722;SHT31;58309;45.292;11.820;2023-06-14T07:16:38;24.05;66.50
67722;SHT31;58309;45.292;11.820;2023-06-14T07:19:03;24.39;64.96
67722;SHT31;58309;45.292;11.820;2023-06-14T07:21:29;24.48;64.44
67722;SHT31;58309;45.292;11.820;2023-06-14T07:23:55;24.30;63.78
67722;SHT31;58309;45.292;11.820;2023-06-14T07:26:23;24.39;65.60
67722;SHT31;58309;45.292;11.820;2023-06-14T07:28:49;24.42;65.57
67722;SHT31;58309;45.292;11.820;2023-06-14T07:31:15;24.45;65.42
67722;SHT31;58309;45.292;11.820;2023-06-14T07:33:42;24.72;65.58
67722;SHT31;58309;45.292;11.820;2023-06-14T07:36:08;24.83;64.45
67722;SHT31;58309;45.292;11.820;2023-06-14T07:38:34;25.03;63.04
67722;SHT31;58309;45.292;11.820;2023-06-14T07:41:00;25.17;62.17
67722;SHT31;58309;45.292;11.820;2023-06-14T07:43:26;25.37;63.12
67722;SHT31;58309;45.292;11.820;2023-06-14T07:45:51;25.41;61.89
67722;SHT31;58309;45.292;11.820;2023-06-14T07:48:18;25.48;62.05
67722;SHT31;58309;45.292;11.820;2023-06-14T07:50:44;25.61;62.73
67722;SHT31;58309;45.292;11.820;2023-06-14T07:53:09;25.69;60.61
67722;SHT31;58309;45.292;11.820;2023-06-14T07:55:35;25.58;60.48
67722;SHT31;58309;45.292;11.820;2023-06-14T07:58:06;25.95;61.27
67722;SHT31;58309;45.292;11.820;2023-06-14T08:00:34;26.30;59.33
67722;SHT31;58309;45.292;11.820;2023-06-14T08:03:00;26.34;58.70
67722;SHT31;58309;45.292;11.820;2023-06-14T08:05:26;25.90;58.06
67722;SHT31;58309;45.292;11.820;2023-06-14T08:07:52;26.24;58.40
67722;SHT31;58309;45.292;11.820;2023-06-14T08:10:17;27.15;56.53
67722;SHT31;58309;45.292;11.820;2023-06-14T08:12:43;27.90;54.20
67722;SHT31;58309;45.292;11.820;2023-06-14T08:15:09;28.78;51.13
67722;SHT31;58309;45.292;11.820;2023-06-14T08:17:35;30.06;48.30
67722;SHT31;58309;45.292;11.820;2023-06-14T08:20:00;30.60;48.27
67722;SHT31;58309;45.292;11.820;2023-06-14T08:22:26;30.19;47.28
67722;SHT31;58309;45.292;11.820;2023-06-14T08:24:53;30.42;48.84
67722;SHT31;58309;45.292;11.820;2023-06-14T08:27:20;30.15;49.63
67722;SHT31;58309;45.292;11.820;2023-06-14T08:29:46;30.74;46.91
67722;SHT31;58309;45.292;11.820;2023-06-14T08:32:12;30.13;49.11
67722;SHT31;58309;45.292;11.820;2023-06-14T08:34:37;30.37;48.15
67722;SHT31;58309;45.292;11.820;2023-06-14T08:37:03;29.60;49.13
67722;SHT31;58309;45.292;11.820;2023-06-14T08:39:29;29.03;49.49
67722;SHT31;58309;45.292;11.820;2023-06-14T08:41:56;29.09;50.71
67722;SHT31;58309;45.292;11.820;2023-06-14T08:44:22;28.93;49.77
67722;SHT31;58309;45.292;11.820;2023-06-14T08:46:48;29.47;51.33
67722;SHT31;58309;45.292;11.820;2023-06-14T08:49:16;30.13;48.99
67722;SHT31;58309;45.292;11.820;2023-06-14T08:51:43;30.08;49.88
67722;SHT31;58309;45.292;11.820;2023-06-14T08:54:10;30.42;47.19
67722;SHT31;58309;45.292;11.820;2023-06-14T08:56:38;30.09;47.97
67722;SHT31;58309;45.292;11.820;2023-06-14T08:59:04;30.44;47.30
67722;SHT31;58309;45.292;11.820;2023-06-14T09:01:36;29.71;47.94
67722;SHT31;58309;45.292;11.820;2023-06-14T09:04:01;30.21;47.31
67722;SHT31;58309;45.292;11.820;2023-06-14T09:06:28;30.67;46.84
67722;SHT31;58309;45.292;11.820;2023-06-14T09:08:55;30.26;47.48
67722;SHT31;58309;45.292;11.820;2023-06-14T09:11:23;29.72;47.98
67722;SHT31;58309;45.292;11.820;2023-06-14T09:13:49;30.43;46.49
67722;SHT31;58309;45.292;11.820;2023-06-14T09:16:16;30.32;46.56
67722;SHT31;58309;45.292;11.820;2023-06-14T09:21:10;31.61;47.58
67722;SHT31;58309;45.292;11.820;2023-06-14T09:23:41;32.50;44.55
67722;SHT31;58309;45.292;11.820;2023-06-14T09:26:15;32.09;44.36
67722;SHT31;58309;45.292;11.820;2023-06-14T09:28:46;32.17;43.29
67722;SHT31;58309;45.292;11.820;2023-06-14T09:31:14;32.06;43.53
67722;SHT31;58309;45.292;11.820;2023-06-14T09:33:44;32.37;43.22
67722;SHT31;58309;45.292;11.820;2023-06-14T09:36:23;31.65;44.89
67722;SHT31;58309;45.292;11.820;2023-06-14T09:38:56;31.48;44.65
67722;SHT31;58309;45.292;11.820;2023-06-14T09:41:38;30.74;45.51
67722;SHT31;58309;45.292;11.820;2023-06-14T09:44:06;31.31;45.96
67722;SHT31;58309;45.292;11.820;2023-06-14T09:46:32;31.06;46.09
67722;SHT31;58309;45.292;11.820;2023-06-14T09:48:59;31.07;47.26
67722;SHT31;58309;45.292;11.820;2023-06-14T09:51:26;31.89;45.44
67722;SHT31;58309;45.292;11.820;2023-06-14T09:53:52;32.53;45.11
67722;SHT31;58309;45.292;11.820;2023-06-14T09:56:35;34.13;41.65
67722;SHT31;58309;45.292;11.820;2023-06-14T09:59:06;34.57;39.27
67722;SHT31;58309;45.292;11.820;2023-06-14T10:01:35;35.43;38.08
67722;SHT31;58309;45.292;11.820;2023-06-14T10:04:05;36.32;37.68
67722;SHT31;58309;45.292;11.820;2023-06-14T10:06:32;35.67;37.21
67722;SHT31;58309;45.292;11.820;2023-06-14T10:09:03;35.15;40.10
67722;SHT31;58309;45.292;11.820;2023-06-14T10:11:29;35.73;37.48
67722;SHT31;58309;45.292;11.820;2023-06-14T10:13:55;34.68;39.12
67722;SHT31;58309;45.292;11.820;2023-06-14T10:22:02;37.00;36.03
67722;SHT31;58309;45.292;11.820;2023-06-14T10:24:38;36.29;35.98
67722;SHT31;58309;45.292;11.820;2023-06-14T10:27:07;36.49;34.76
67722;SHT31;58309;45.292;11.820;2023-06-14T10:32:22;35.81;36.85
67722;SHT31;58309;45.292;11.820;2023-06-14T10:35:00;36.41;36.30
67722;SHT31;58309;45.292;11.820;2023-06-14T10:37:27;37.37;35.68
67722;SHT31;58309;45.292;11.820;2023-06-14T10:39:53;37.03;35.50
67722;SHT31;58309;45.292;11.820;2023-06-14T10:42:19;35.02;38.55
67722;SHT31;58309;45.292;11.820;2023-06-14T10:44:57;34.20;39.45
67722;SHT31;58309;45.292;11.820;2023-06-14T10:49:53;34.24;40.57
67722;SHT31;58309;45.292;11.820;2023-06-14T10:52:27;33.83;39.86
67722;SHT31;58309;45.292;11.820;2023-06-14T10:55:03;34.16;39.83
67722;SHT31;58309;45.292;11.820;2023-06-14T10:57:30;34.75;39.74
67722;SHT31;58309;45.292;11.820;2023-06-14T10:59:58;34.43;38.64
67722;SHT31;58309;45.292;11.820;2023-06-14T11:05:14;35.76;39.94
67722;SHT31;58309;45.292;11.820;2023-06-14T11:07:52;36.68;37.94
67722;SHT31;58309;45.292;11.820;2023-06-14T11:10:40;36.83;36.70
67722;SHT31;58309;45.292;11.820;2023-06-14T11:13:07;34.84;39.24
67722;SHT31;58309;45.292;11.820;2023-06-14T11:15:37;33.12;41.64
67722;SHT31;58309;45.292;11.820;2023-06-14T11:18:06;31.08;44.81
67722;SHT31;58309;45.292;11.820;2023-06-14T11:20:33;29.77;46.99
67722;SHT31;58309;45.292;11.820;2023-06-14T11:23:00;30.49;47.30
67722;SHT31;58309;45.292;11.820;2023-06-14T11:25:26;31.45;46.26
67722;SHT31;58309;45.292;11.820;2023-06-14T11:27:54;32.54;45.53
67722;SHT31;58309;45.292;11.820;2023-06-14T11:30:19;31.79;43.15
67722;SHT31;58309;45.292;11.820;2023-06-14T11:32:49;32.34;42.46
67722;SHT31;58309;45.292;11.820;2023-06-14T11:35:16;32.43;45.96
67722;SHT31;58309;45.292;11.820;2023-06-14T11:37:41;31.27;44.88
67722;SHT31;58309;45.292;11.820;2023-06-14T11:40:08;30.72;45.86
67722;SHT31;58309;45.292;11.820;2023-06-14T11:42:36;30.04;46.29
67722;SHT31;58309;45.292;11.820;2023-06-14T11:45:02;30.52;47.29
67722;SHT31;58309;45.292;11.820;2023-06-14T11:47:32;31.45;43.34
67722;SHT31;58309;45.292;11.820;2023-06-14T11:49:59;33.26;43.64
67722;SHT31;58309;45.292;11.820;2023-06-14T11:52:25;34.65;39.37
67722;SHT31;58309;45.292;11.820;2023-06-14T11:54:51;35.00;39.14
67722;SHT31;58309;45.292;11.820;2023-06-14T11:57:18;33.50;41.14
67722;SHT31;58309;45.292;11.820;2023-06-14T11:59:44;30.69;44.13
67722;SHT31;58309;45.292;11.820;2023-06-14T12:02:14;30.08;45.99
67722;SHT31;58309;45.292;11.820;2023-06-14T12:04:43;31.86;44.53
67722;SHT31;58309;45.292;11.820;2023-06-14T12:07:13;33.18;41.13
67722;SHT31;58309;45.292;11.820;2023-06-14T12:12:35;33.46;41.00
67722;SHT31;58309;45.292;11.820;2023-06-14T12:15:05;34.37;38.89
67722;SHT31;58309;45.292;11.820;2023-06-14T12:17:35;34.87;39.07
67722;SHT31;58309;45.292;11.820;2023-06-14T12:20:19;34.58;38.02
67722;SHT31;58309;45.292;11.820;2023-06-14T12:22:54;34.82;38.30
67722;SHT31;58309;45.292;11.820;2023-06-14T12:25:32;34.48;37.78
67722;SHT31;58309;45.292;11.820;2023-06-14T12:27:59;33.93;38.60
67722;SHT31;58309;45.292;11.820;2023-06-14T12:30:31;33.36;38.54
67722;SHT31;58309;45.292;11.820;2023-06-14T12:32:56;32.54;38.16
67722;SHT31;58309;45.292;11.820;2023-06-14T12:35:22;32.14;41.02
67722;SHT31;58309;45.292;11.820;2023-06-14T12:37:47;31.24;40.58
67722;SHT31;58309;45.292;11.820;2023-06-14T12:40:13;30.63;41.98
67722;SHT31;58309;45.292;11.820;2023-06-14T12:42:39;30.29;45.70
67722;SHT31;58309;45.292;11.820;2023-06-14T12:45:06;30.13;44.21
67722;SHT31;58309;45.292;11.820;2023-06-14T12:47:31;30.05;44.51
67722;SHT31;58309;45.292;11.820;2023-06-14T12:49:57;29.65;44.58
67722;SHT31;58309;45.292;11.820;2023-06-14T12:52:22;29.50;45.78
67722;SHT31;58309;45.292;11.820;2023-06-14T12:54:51;29.35;45.86
67722;SHT31;58309;45.292;11.820;2023-06-14T12:57:16;29.12;45.24
67722;SHT31;58309;45.292;11.820;2023-06-14T12:59:42;29.00;45.79
67722;SHT31;58309;45.292;11.820;2023-06-14T13:02:20;29.00;46.85
67722;SHT31;58309;45.292;11.820;2023-06-14T13:04:49;29.22;46.94
67722;SHT31;58309;45.292;11.820;2023-06-14T13:07:15;29.13;47.79
67722;SHT31;58309;45.292;11.820;2023-06-14T13:09:41;29.17;47.66
67722;SHT31;58309;45.292;11.820;2023-06-14T13:12:08;29.24;46.53
67722;SHT31;58309;45.292;11.820;2023-06-14T13:14:36;29.33;45.77
67722;SHT31;58309;45.292;11.820;2023-06-14T13:17:01;29.33;46.94
67722;SHT31;58309;45.292;11.820;2023-06-14T13:19:27;29.24;46.98
67722;SHT31;58309;45.292;11.820;2023-06-14T13:21:52;29.13;47.28
67722;SHT31;58309;45.292;11.820;2023-06-14T13:24:18;29.06;45.97
67722;SHT31;58309;45.292;11.820;2023-06-14T13:26:43;28.89;47.48
67722;SHT31;58309;45.292;11.820;2023-06-14T13:29:09;28.92;47.08
67722;SHT31;58309;45.292;11.820;2023-06-14T13:31:34;29.13;47.37
67722;SHT31;58309;45.292;11.820;2023-06-14T13:34:00;28.93;46.46
67722;SHT31;58309;45.292;11.820;2023-06-14T13:36:25;28.80;45.21
67722;SHT31;58309;45.292;11.820;2023-06-14T13:38:51;28.72;45.85
67722;SHT31;58309;45.292;11.820;2023-06-14T13:41:18;28.71;46.51
67722;SHT31;58309;45.292;11.820;2023-06-14T13:43:43;28.82;46.53
67722;SHT31;58309;45.292;11.820;2023-06-14T13:46:09;28.78;45.14
67722;SHT31;58309;45.292;11.820;2023-06-14T13:48:34;28.88;47.85
67722;SHT31;58309;45.292;11.820;2023-06-14T13:51:00;28.86;47.14
67722;SHT31;58309;45.292;11.820;2023-06-14T13:53:26;28.68;46.25
67722;SHT31;58309;45.292;11.820;2023-06-14T13:55:52;28.69;46.01
67722;SHT31;58309;45.292;11.820;2023-06-14T13:58:17;28.88;45.86
67722;SHT31;58309;45.292;11.820;2023-06-14T14:00:43;28.73;45.98
67722;SHT31;58309;45.292;11.820;2023-06-14T14:03:09;28.83;47.28
67722;SHT31;58309;45.292;11.820;2023-06-14T14:05:35;28.85;45.05
67722;SHT31;58309;45.292;11.820;2023-06-14T14:08:00;28.83;46.43
67722;SHT31;58309;45.292;11.820;2023-06-14T14:10:27;29.02;45.25
67722;SHT31;58309;45.292;11.820;2023-06-14T14:12:52;29.20;45.70
67722;SHT31;58309;45.292;11.820;2023-06-14T14:15:20;29.43;46.44
67722;SHT31;58309;45.292;11.820;2023-06-14T14:17:45;29.49;44.85
67722;SHT31;58309;45.292;11.820;2023-06-14T14:20:12;29.91;44.10
67722;SHT31;58309;45.292;11.820;2023-06-14T14:22:43;29.47;43.19
67722;SHT31;58309;45.292;11.820;2023-06-14T14:25:09;29.58;43.80
67722;SHT31;58309;45.292;11.820;2023-06-14T14:27:36;29.72;42.99
67722;SHT31;58309;45.292;11.820;2023-06-14T14:30:03;30.04;43.38
67722;SHT31;58309;45.292;11.820;2023-06-14T14:32:29;30.19;43.53
67722;SHT31;58309;45.292;11.820;2023-06-14T14:34:54;30.08;44.17
67722;SHT31;58309;45.292;11.820;2023-06-14T14:37:20;29.85;43.94
67722;SHT31;58309;45.292;11.820;2023-06-14T14:39:46;29.61;43.96
67722;SHT31;58309;45.292;11.820;2023-06-14T14:42:12;29.49;44.48
67722;SHT31;58309;45.292;11.820;2023-06-14T14:44:38;29.60;43.36
67722;SHT31;58309;45.292;11.820;2023-06-14T14:47:05;29.81;43.06
67722;SHT31;58309;45.292;11.820;2023-06-14T14:49:31;29.98;41.79
67722;SHT31;58309;45.292;11.820;2023-06-14T14:51:57;30.35;42.19
67722;SHT31;58309;45.292;11.820;2023-06-14T14:54:25;30.47;41.91
67722;SHT31;58309;45.292;11.820;2023-06-14T14:56:51;30.33;40.99
67722;SHT31;58309;45.292;11.820;2023-06-14T14:59:17;30.22;42.04
67722;SHT31;58309;45.292;11.820;2023-06-14T15:01:44;30.59;41.54
67722;SHT31;58309;45.292;11.820;2023-06-14T15:04:10;30.97;41.25
67722;SHT31;58309;45.292;11.820;2023-06-14T15:06:37;30.81;40.26
67722;SHT31;58309;45.292;11.820;2023-06-14T15:09:03;30.72;40.18
67722;SHT31;58309;45.292;11.820;2023-06-14T15:11:29;30.43;40.28
67722;SHT31;58309;45.292;11.820;2023-06-14T15:13:54;30.00;40.78
67722;SHT31;58309;45.292;11.820;2023-06-14T15:16:20;29.29;42.30
67722;SHT31;58309;45.292;11.820;2023-06-14T15:18:45;28.78;43.37
67722;SHT31;58309;45.292;11.820;2023-06-14T15:21:12;28.37;44.36
67722;SHT31;58309;45.292;11.820;2023-06-14T15:23:37;28.11;45.65
67722;SHT31;58309;45.292;11.820;2023-06-14T15:26:03;27.97;46.23
67722;SHT31;58309;45.292;11.820;2023-06-14T15:28:28;27.96;44.92
67722;SHT31;58309;45.292;11.820;2023-06-14T15:30:55;27.86;46.08
67722;SHT31;58309;45.292;11.820;2023-06-14T15:33:21;27.79;46.34
67722;SHT31;58309;45.292;11.820;2023-06-14T15:35:46;27.79;46.52
67722;SHT31;58309;45.292;11.820;2023-06-14T15:38:12;27.69;45.97